createdAt,value
2022-11-06T00:01:33.996Z,55.77
2022-11-06T00:04:35.652Z,55.87
2022-11-06T00:07:37.189Z,55.99
2022-11-06T00:10:38.970Z,55.93
2022-11-06T00:13:41.660Z,55.85
2022-11-06T00:16:44.398Z,55.87
2022-11-06T00:19:45.918Z,55.78
2022-11-06T00:22:47.607Z,55.72
2022-11-06T00:25:53.087Z,55.90
2022-11-06T00:28:55.578Z,55.93
2022-11-06T00:31:57.086Z,56.04
2022-11-06T00:34:58.635Z,55.97
2022-11-06T00:38:00.130Z,55.82
2022-11-06T00:41:09.896Z,55.88
2022-11-06T00:44:11.545Z,55.87
2022-11-06T00:47:13.136Z,56.04
2022-11-06T00:50:14.702Z,56.07
2022-11-06T00:53:16.231Z,56.18
2022-11-06T00:56:19.559Z,55.80
2022-11-06T00:59:21.171Z,56.06
2022-11-06T01:02:22.815Z,55.83
2022-11-06T01:05:24.507Z,56.00
2022-11-06T01:08:26.045Z,56.11
2022-11-06T01:11:52.316Z,55.89
2022-11-06T01:14:54.500Z,56.01
2022-11-06T01:17:56.008Z,56.15
2022-11-06T01:20:57.785Z,56.18
2022-11-06T01:24:06.239Z,56.07
2022-11-06T01:30:29.444Z,56.11
2022-11-06T01:33:31.546Z,56.04
2022-11-06T01:36:33.779Z,56.08
2022-11-06T01:39:35.329Z,56.10
2022-11-06T01:42:36.848Z,56.02
2022-11-06T01:45:39.321Z,55.85
2022-11-06T01:48:43.781Z,56.10
2022-11-06T01:51:50.142Z,56.06
2022-11-06T01:54:57.075Z,56.02
2022-11-06T01:58:01.824Z,56.15
2022-11-06T02:01:04.805Z,56.03
2022-11-06T02:04:12.185Z,55.95
2022-11-06T02:07:15.183Z,55.96
2022-11-06T02:10:16.839Z,56.14
2022-11-06T02:13:23.191Z,56.09
2022-11-06T02:16:41.961Z,56.04
2022-11-06T02:19:49.291Z,56.01
2022-11-06T02:23:03.021Z,56.08
2022-11-06T02:26:24.357Z,56.06
2022-11-06T02:29:33.486Z,56.13
2022-11-06T02:32:57.012Z,56.06
2022-11-06T02:36:03.257Z,56.16
2022-11-06T02:39:12.246Z,55.93
2022-11-06T02:42:18.313Z,56.01
2022-11-06T02:45:22.160Z,55.91
2022-11-06T02:48:30.679Z,56.16
2022-11-06T02:51:38.436Z,56.03
2022-11-06T02:54:46.459Z,56.02
2022-11-06T02:57:54.600Z,56.01
2022-11-06T03:01:13.367Z,56.10
2022-11-06T03:04:41.112Z,56.00
2022-11-06T03:08:07.261Z,56.19
2022-11-06T03:11:25.687Z,56.00
2022-11-06T03:14:30.338Z,56.28
2022-11-06T03:18:06.896Z,56.18
2022-11-06T03:21:22.324Z,56.11
2022-11-06T03:24:35.985Z,56.23
2022-11-06T03:27:49.750Z,56.12
2022-11-06T03:30:56.306Z,56.10
2022-11-06T03:34:12.388Z,56.46
2022-11-06T03:37:27.549Z,56.06
2022-11-06T03:40:34.910Z,56.24
2022-11-06T03:43:38.927Z,56.23
2022-11-06T03:46:47.469Z,56.30
2022-11-06T03:49:57.802Z,56.22
2022-11-06T03:53:08.503Z,56.25
2022-11-06T03:56:25.331Z,56.27
2022-11-06T03:59:33.022Z,56.17
2022-11-06T04:02:38.518Z,56.13
2022-11-06T04:05:44.300Z,56.19
2022-11-06T04:09:07.260Z,56.16
2022-11-06T04:12:30.526Z,56.13
2022-11-06T04:15:39.308Z,56.02
2022-11-06T04:18:40.843Z,56.14
2022-11-06T04:21:45.083Z,56.26
2022-11-06T04:25:10.802Z,56.23
2022-11-06T04:28:38.651Z,56.27
2022-11-06T04:31:55.038Z,56.11
2022-11-06T04:35:04.892Z,56.09
2022-11-06T04:38:16.205Z,56.10
2022-11-06T04:41:34.656Z,56.22
2022-11-06T04:44:52.177Z,56.17
2022-11-06T04:47:55.054Z,56.26
2022-11-06T04:51:01.705Z,56.33
2022-11-06T04:54:06.029Z,56.38
2022-11-06T04:57:07.817Z,56.40
2022-11-06T05:00:14.118Z,56.29
2022-11-06T05:03:16.920Z,56.34
2022-11-06T05:06:18.935Z,56.30
2022-11-06T05:09:20.463Z,56.27
2022-11-06T05:12:22.010Z,56.45
2022-11-06T05:15:23.547Z,56.32
2022-11-06T05:18:26.623Z,56.28
2022-11-06T05:21:46.788Z,56.51
2022-11-06T05:24:48.323Z,56.48
2022-11-06T05:27:49.819Z,56.31
2022-11-06T05:30:51.377Z,56.51
2022-11-06T05:33:52.882Z,56.70
2022-11-06T05:36:54.463Z,56.81
2022-11-06T05:39:56.101Z,56.55
2022-11-06T05:42:57.623Z,56.73
2022-11-06T05:46:00.606Z,56.50
2022-11-06T05:49:02.142Z,56.62
2022-11-06T05:52:03.867Z,56.42
2022-11-06T05:55:10.109Z,56.75
2022-11-06T05:58:15.374Z,56.56
2022-11-06T06:01:17.191Z,56.72
2022-11-06T06:04:18.749Z,56.80
2022-11-06T06:07:20.304Z,56.67
2022-11-06T06:10:21.822Z,56.81
2022-11-06T06:13:23.382Z,56.82
2022-11-06T06:16:24.960Z,56.74
2022-11-06T06:19:26.539Z,56.59
2022-11-06T06:22:28.085Z,56.66
2022-11-06T06:25:30.368Z,57.25
2022-11-06T06:28:32.211Z,56.66
2022-11-06T06:31:33.738Z,56.66
2022-11-06T06:34:35.241Z,56.82
2022-11-06T06:37:37.116Z,56.77
2022-11-06T06:40:38.743Z,56.70
2022-11-06T06:43:40.273Z,56.70
2022-11-06T06:46:42.055Z,57.09
2022-11-06T06:49:44.446Z,57.02
2022-11-06T06:52:45.971Z,56.89
2022-11-06T06:55:47.560Z,57.00
2022-11-06T06:58:49.206Z,57.17
2022-11-06T07:01:50.861Z,57.23
2022-11-06T07:04:52.560Z,57.01
2022-11-06T07:07:54.157Z,57.09
2022-11-06T07:11:07.737Z,56.99
2022-11-06T07:14:10.704Z,56.98
2022-11-06T07:17:12.263Z,57.15
2022-11-06T07:20:14.522Z,57.21
2022-11-06T07:23:16.161Z,57.43
2022-11-06T07:26:17.702Z,57.29
2022-11-06T07:29:19.278Z,57.39
2022-11-06T07:32:20.937Z,57.14
2022-11-06T07:35:22.743Z,57.01
2022-11-06T07:38:24.339Z,57.04
2022-11-06T07:41:25.891Z,57.18
2022-11-06T07:44:27.424Z,57.31
2022-11-06T07:47:32.040Z,57.08
2022-11-06T07:50:33.712Z,57.22
2022-11-06T07:53:35.786Z,57.28
2022-11-06T07:56:37.890Z,57.46
2022-11-06T07:59:39.499Z,57.37
2022-11-06T08:02:41.881Z,57.33
2022-11-06T08:05:43.835Z,57.46
2022-11-06T08:08:45.416Z,57.47
2022-11-06T08:11:48.711Z,57.45
2022-11-06T08:14:50.271Z,57.46
2022-11-06T08:17:51.843Z,57.22
2022-11-06T08:20:53.920Z,57.32
2022-11-06T08:23:55.474Z,57.48
2022-11-06T08:26:59.034Z,57.35
2022-11-06T08:30:00.561Z,57.17
2022-11-06T08:33:05.102Z,57.36
2022-11-06T08:36:08.405Z,57.26
2022-11-06T08:39:09.916Z,57.31
2022-11-06T08:42:12.066Z,57.16
2022-11-06T08:45:13.630Z,57.33
2022-11-06T08:48:15.150Z,57.17
2022-11-06T08:51:16.704Z,57.38
2022-11-06T08:54:18.267Z,57.19
2022-11-06T08:57:19.834Z,57.05
2022-11-06T09:00:21.586Z,57.18
2022-11-06T09:03:23.137Z,57.29
2022-11-06T09:06:25.701Z,57.26
2022-11-06T09:09:32.082Z,57.13
2022-11-06T09:12:33.655Z,57.12
2022-11-06T09:15:35.439Z,57.15
2022-11-06T09:18:36.988Z,57.22
2022-11-06T09:21:38.565Z,57.03
2022-11-06T09:25:02.066Z,57.06
2022-11-06T09:28:02.076Z,57.16
2022-11-06T09:31:03.626Z,57.13
2022-11-06T09:34:05.170Z,57.05
2022-11-06T09:37:06.665Z,56.82
2022-11-06T09:40:26.958Z,56.86
2022-11-06T09:44:03.453Z,56.95
2022-11-06T09:47:04.391Z,56.89
2022-11-06T09:50:12.260Z,56.74
2022-11-06T09:53:48.665Z,56.88
2022-11-06T09:56:59.655Z,56.96
2022-11-06T10:00:03.065Z,56.87
2022-11-06T10:03:13.477Z,57.05
2022-11-06T10:06:15.483Z,56.96
2022-11-06T10:09:18.311Z,56.81
2022-11-06T10:12:33.360Z,56.87
2022-11-06T10:15:44.521Z,56.96
2022-11-06T10:19:04.757Z,56.96
2022-11-06T10:22:17.243Z,56.95
2022-11-06T10:25:20.138Z,56.96
2022-11-06T10:28:46.537Z,56.87
2022-11-06T10:32:30.563Z,56.92
2022-11-06T10:35:54.485Z,56.68
2022-11-06T10:38:59.025Z,56.65
2022-11-06T10:42:10.855Z,56.66
2022-11-06T10:45:15.704Z,56.67
2022-11-06T10:48:30.075Z,56.61
2022-11-06T10:51:56.916Z,56.66
2022-11-06T10:55:07.543Z,56.63
2022-11-06T10:58:14.320Z,56.60
2022-11-06T11:01:16.243Z,56.65
2022-11-06T11:04:17.851Z,56.58
2022-11-06T11:07:21.779Z,56.60
2022-11-06T11:10:23.421Z,56.67
2022-11-06T11:13:25.002Z,56.70
2022-11-06T11:16:29.849Z,56.44
2022-11-06T11:19:41.504Z,56.53
2022-11-06T11:22:43.069Z,56.55
2022-11-06T11:25:50.709Z,56.45
2022-11-06T11:28:55.657Z,56.46
2022-11-06T11:32:01.323Z,56.47
2022-11-06T11:35:10.419Z,56.44
2022-11-06T11:38:15.438Z,56.41
2022-11-06T11:41:20.463Z,56.27
2022-11-06T11:44:22.106Z,56.45
2022-11-06T11:47:24.670Z,56.31
2022-11-06T11:50:28.326Z,56.44
2022-11-06T11:53:30.957Z,56.24
2022-11-06T11:57:02.888Z,56.36
2022-11-06T12:00:01.725Z,56.15
2022-11-06T12:03:11.117Z,56.23
2022-11-06T12:06:16.156Z,56.24
2022-11-06T12:09:17.866Z,56.22
2022-11-06T12:12:25.979Z,56.25
2022-11-06T12:15:28.852Z,56.19
2022-11-06T12:18:37.186Z,56.08
2022-11-06T12:21:42.674Z,56.14
2022-11-06T12:24:56.675Z,56.32
2022-11-06T12:28:01.130Z,56.23
2022-11-06T12:31:39.697Z,56.16
2022-11-06T12:34:47.583Z,56.00
2022-11-06T12:38:01.178Z,55.98
2022-11-06T12:41:21.149Z,56.14
2022-11-06T12:44:22.814Z,56.08
2022-11-06T12:47:42.410Z,55.91
2022-11-06T12:50:51.879Z,56.21
2022-11-06T12:54:16.512Z,56.10
2022-11-06T12:57:32.999Z,55.93
2022-11-06T13:00:40.401Z,55.80
2022-11-06T13:04:09.761Z,56.08
2022-11-06T13:07:29.668Z,56.03
2022-11-06T13:10:37.284Z,56.02
2022-11-06T13:13:49.566Z,55.85
2022-11-06T13:17:04.251Z,55.90
2022-11-06T13:20:19.887Z,55.95
2022-11-06T13:23:49.371Z,56.07
2022-11-06T13:27:16.099Z,55.97
2022-11-06T13:30:20.580Z,55.94
2022-11-06T13:33:24.877Z,56.03
2022-11-06T13:36:28.498Z,56.02
2022-11-06T13:39:34.722Z,55.91
2022-11-06T13:42:40.121Z,55.90
2022-11-06T13:46:05.244Z,56.03
2022-11-06T13:49:25.836Z,55.89
2022-11-06T13:52:27.485Z,55.49
2022-11-06T13:55:53.452Z,55.96
2022-11-06T13:59:23.736Z,55.77
2022-11-06T14:02:59.576Z,55.77
2022-11-06T14:06:03.841Z,55.77
2022-11-06T14:09:08.891Z,55.69
2022-11-06T14:12:17.931Z,55.77
2022-11-06T14:15:19.425Z,55.73
2022-11-06T14:18:23.882Z,55.92
2022-11-06T14:21:28.621Z,55.78
2022-11-06T14:24:30.163Z,55.84
2022-11-06T14:27:31.753Z,55.87
2022-11-06T14:31:05.666Z,55.71
2022-11-06T14:33:59.530Z,56.06
2022-11-06T14:37:19.306Z,55.72
2022-11-06T14:40:32.062Z,55.80
2022-11-06T14:43:36.083Z,55.95
2022-11-06T14:46:37.766Z,55.66
2022-11-06T14:49:48.938Z,55.98
2022-11-06T14:53:20.547Z,55.69
2022-11-06T14:56:26.017Z,55.70
2022-11-06T14:59:36.552Z,55.72
2022-11-06T15:02:39.146Z,55.79
2022-11-06T15:05:42.781Z,55.70
2022-11-06T15:08:48.289Z,55.74
2022-11-06T15:11:59.986Z,55.83
2022-11-06T15:15:14.548Z,55.76
2022-11-06T15:18:24.534Z,55.48
2022-11-06T15:21:30.926Z,55.62
2022-11-06T15:24:45.803Z,55.65
2022-11-06T15:27:59.162Z,55.58
2022-11-06T15:31:15.298Z,55.62
2022-11-06T15:34:35.536Z,55.66
2022-11-06T15:37:46.404Z,55.69
2022-11-06T15:40:51.233Z,55.55
2022-11-06T15:43:57.603Z,55.40
2022-11-06T15:46:59.712Z,55.47
2022-11-06T15:50:19.547Z,55.54
2022-11-06T15:53:23.631Z,55.36
2022-11-06T15:56:31.710Z,55.20
2022-11-06T15:59:33.260Z,55.41
2022-11-06T16:02:54.706Z,55.32
2022-11-06T16:05:58.667Z,55.26
2022-11-06T16:09:01.979Z,55.31
2022-11-06T16:12:03.810Z,55.39
2022-11-06T16:15:05.714Z,55.32
2022-11-06T16:18:13.383Z,55.35
2022-11-06T16:21:19.144Z,55.32
2022-11-06T16:24:20.759Z,55.42
2022-11-06T16:27:24.237Z,55.33
2022-11-06T16:30:25.994Z,55.38
2022-11-06T16:33:27.699Z,55.30
2022-11-06T16:36:32.170Z,55.32
2022-11-06T16:39:49.881Z,55.29
2022-11-06T16:43:03.309Z,55.34
2022-11-06T16:46:08.040Z,55.74
2022-11-06T16:49:35.047Z,55.77
2022-11-06T16:52:40.439Z,55.10
2022-11-06T16:55:42.048Z,55.13
2022-11-06T16:58:53.747Z,55.00
2022-11-06T17:01:55.721Z,55.09
2022-11-06T17:05:14.391Z,55.09
2022-11-06T17:08:19.015Z,55.05
2022-11-06T17:11:23.323Z,55.11
2022-11-06T17:14:25.127Z,55.11
2022-11-06T17:17:26.792Z,55.03
2022-11-06T17:20:30.191Z,54.87
2022-11-06T17:23:32.985Z,55.13
2022-11-06T17:26:36.736Z,55.07
2022-11-06T17:29:38.826Z,54.99
2022-11-06T17:32:41.047Z,54.89
2022-11-06T17:35:42.815Z,54.93
2022-11-06T17:38:44.897Z,55.05
2022-11-06T17:41:46.472Z,54.93
2022-11-06T17:44:48.074Z,54.91
2022-11-06T17:47:49.730Z,54.86
2022-11-06T17:51:09.997Z,54.90
2022-11-06T17:54:11.621Z,54.75
2022-11-06T17:57:15.693Z,54.76
2022-11-06T18:00:20.787Z,54.85
2022-11-06T18:03:22.794Z,54.80
2022-11-06T18:06:24.510Z,54.67
2022-11-06T18:09:26.528Z,54.80
2022-11-06T18:12:28.879Z,54.71
2022-11-06T18:15:33.571Z,54.67
2022-11-06T18:18:35.107Z,54.73
2022-11-06T18:21:37.291Z,54.67
2022-11-06T18:24:39.931Z,54.73
2022-11-06T18:27:41.449Z,54.89
2022-11-06T18:30:42.993Z,54.56
2022-11-06T18:33:45.038Z,54.42
2022-11-06T18:36:48.407Z,54.49
2022-11-06T18:39:49.967Z,54.54
2022-11-06T18:42:54.724Z,54.57
2022-11-06T18:45:56.276Z,54.49
2022-11-06T18:48:58.554Z,54.50
2022-11-06T18:52:00.138Z,54.47
2022-11-06T18:55:01.736Z,54.36
2022-11-06T18:58:03.519Z,54.38
2022-11-06T19:01:11.048Z,54.39
2022-11-06T19:04:13.186Z,54.32
2022-11-06T19:07:14.738Z,54.37
2022-11-06T19:10:16.287Z,54.30
2022-11-06T19:13:18.046Z,54.27
2022-11-06T19:16:20.069Z,54.37
2022-11-06T19:19:25.432Z,54.34
2022-11-06T19:22:29.395Z,54.29
2022-11-06T19:25:30.933Z,54.42
2022-11-06T19:28:35.917Z,54.31
2022-11-06T19:31:38.471Z,54.24
2022-11-06T19:34:40.066Z,54.59
2022-11-06T19:37:41.940Z,54.40
2022-11-06T19:40:43.484Z,54.44
2022-11-06T19:43:44.980Z,54.55
2022-11-06T19:46:46.575Z,54.66
2022-11-06T19:49:48.125Z,54.60
2022-11-06T19:52:53.443Z,54.77
2022-11-06T19:55:56.147Z,54.61
2022-11-06T19:58:58.172Z,54.80
2022-11-06T20:01:59.860Z,54.87
2022-11-06T20:05:01.568Z,54.86
2022-11-06T20:08:03.331Z,54.83
2022-11-06T20:11:06.372Z,55.04
2022-11-06T20:14:08.122Z,55.01
2022-11-06T20:17:09.809Z,54.89
2022-11-06T20:20:11.892Z,55.17
2022-11-06T20:23:13.656Z,55.19
2022-11-06T20:26:15.891Z,55.19
2022-11-06T20:29:17.577Z,55.16
2022-11-06T20:32:19.465Z,55.11
2022-11-06T20:35:21.078Z,55.20
2022-11-06T20:38:22.702Z,55.41
2022-11-06T20:41:25.629Z,55.12
2022-11-06T20:44:27.268Z,55.35
2022-11-06T20:47:28.863Z,55.18
2022-11-06T20:50:30.655Z,55.38
2022-11-06T20:53:33.190Z,55.30
2022-11-06T20:56:34.711Z,55.33
2022-11-06T20:59:36.250Z,55.47
2022-11-06T21:02:37.948Z,55.47
2022-11-06T21:05:39.789Z,55.35
2022-11-06T21:08:42.441Z,55.42
2022-11-06T21:11:43.979Z,55.54
2022-11-06T21:14:45.498Z,55.41
2022-11-06T21:17:47.069Z,55.59
2022-11-06T21:20:48.579Z,55.31
2022-11-06T21:23:51.381Z,55.49
2022-11-06T21:26:56.037Z,55.40
2022-11-06T21:29:58.350Z,55.52
2022-11-06T21:32:59.973Z,55.47
2022-11-06T21:36:13.176Z,55.46
2022-11-06T21:39:17.903Z,55.36
2022-11-06T21:42:19.393Z,55.51
2022-11-06T21:45:20.924Z,55.60
2022-11-06T21:48:40.519Z,55.45
2022-11-06T21:51:44.022Z,55.35
2022-11-06T21:55:04.338Z,55.33
2022-11-06T21:58:05.882Z,55.29
2022-11-06T22:01:07.631Z,55.54
2022-11-06T22:04:10.079Z,55.29
2022-11-06T22:07:11.586Z,55.38
2022-11-06T22:10:13.666Z,55.65
2022-11-06T22:13:15.350Z,55.63
2022-11-06T22:16:21.407Z,55.48
2022-11-06T22:19:22.942Z,55.33
2022-11-06T22:22:25.065Z,55.42
2022-11-06T22:25:26.610Z,55.21
2022-11-06T22:28:28.387Z,55.16
2022-11-06T22:31:30.697Z,55.32
2022-11-06T22:34:32.295Z,55.35
2022-11-06T22:37:33.901Z,55.47
2022-11-06T22:40:35.460Z,55.18
2022-11-06T22:43:37.001Z,55.37
2022-11-06T22:46:38.851Z,55.35
2022-11-06T22:49:40.383Z,55.23
2022-11-06T22:52:41.926Z,55.17
2022-11-06T22:55:43.445Z,55.38
2022-11-06T22:58:45.187Z,55.47
2022-11-06T23:01:46.792Z,55.37
2022-11-06T23:04:48.924Z,55.31
2022-11-06T23:07:50.487Z,55.30
2022-11-06T23:10:52.388Z,55.33
2022-11-06T23:13:54.436Z,55.29
2022-11-06T23:17:00.398Z,55.14
2022-11-06T23:20:02.919Z,55.04
2022-11-06T23:23:05.410Z,55.00
2022-11-06T23:26:11.497Z,55.17
2022-11-06T23:29:13.108Z,55.10
2022-11-06T23:32:14.671Z,55.27
2022-11-06T23:35:17.205Z,55.16
2022-11-06T23:38:19.328Z,55.31
2022-11-06T23:41:40.052Z,55.30
2022-11-06T23:45:00.322Z,55.50
2022-11-06T23:48:07.473Z,55.55
2022-11-06T23:51:10.079Z,55.44
2022-11-06T23:54:11.619Z,55.33
2022-11-06T23:57:13.654Z,55.59
